Waverly, GA (31565)

11:58 PM EST on January 23, 2017 (GMT -0500)
Old Town | | Change Station
Active Advisory: Small Craft Advisory Active Notice: Public Information Statement

Elev 36 ft 31.14 °N, 81.49 °W | Updated 12 seconds ago

Clear
Clear
55.2 °F
Feels Like 55.2 °F
N
0.0
Wind Variable Wind from South
Gusts 0.0 mph

Today
High -- | Low -- °F
--% Chance of Precip.
Yesterday
High -- | Low -- °F
Precip. -- in
Pressure 29.64 in
Visibility 10.0 miles
Clouds Clear
Dew Point 51 °F
Humidity 85%
Rainfall 0.04 in
Snow Depth Not available.
7:23 AM 5:54 PM
Waning Crescent, 14% visible
METAR KBQK 240455Z AUTO 27007KT 10SM CLR 13/10 A2964 RMK AO2
Pressure 29.64 in
Visibility 10.0 miles
Clouds Clear
Dew Point 51 °F
Humidity 85%
Rainfall 0.04 in
Snow Depth Not available.
7:23 AM 5:54 PM
Waning Crescent, 14% visible
METAR KBQK 240455Z AUTO 27007KT 10SM CLR 13/10 A2964 RMK AO2

Get Your Daily Forecast Email!

Thanks for signing up!

Be on the lookout for a verification email in your inbox.

You'll start receiving the daily forecast at 8 AM.

×

10-Day Weather Forecast

Almanac

Astronomy

Jan. 23, 2017 Rise Set
Actual Time
Civil Twilight
Nautical Twilight
Astronomical Twilight
Moon
Length of Visible Light
Length of Day
Tomorrow will be .
, % of the Moon is Illuminated

Today's Extremes

State Highs State Lows

Community

WunderPhotos

Upload Photos

1,962,540 photos uploaded!

WunderBlog® & News

Nearby

Air Quality

  Air Quality AQ Index Pollutant
Not available.

Snow Depth

Station Depth Elevation

Earthquake Activity

City Distance Mag. Time & Date
Minimum magnitude displayed is 2.5.

Coastal Water Temperatures

Place Temperature

Stations

Nearby Weather Stations

Station Location Temp. Windchill Dew Point Humidity Wind Precip. Elev Updated Type
                   

Watches & Warnings

Small Craft Advisory
Issued: 9:33 PM EST Jan. 23, 2017 – National Weather Service

... Small Craft Advisory now in effect until 9 am EST Tuesday...

* winds... west northwest 25 to 30 knots with occasional gusts to
gale force. West winds around 20 knots early Tuesday morning.

* Seas... 4 to 6 feet with occasional seas up to 8 feet.

Precautionary/preparedness actions...

A Small Craft Advisory means that wind speeds of 20 to 33 knots...
and/or seas 7 feet or higher... are expected to produce
hazardous conditions for small craft. Inexperienced boaters...
especially those operating smaller vessels should avoid
navigating in these conditions.